Historyczne dane pomiarowe

Dodano dane terminowe – wersja testowa.

Dane z okresu 1951-2019

Wersja bazy: 1.34 [2019-03-16, lista zmian], aktualizacja planowana na 2019-04-15

Dane meteo z obszaru Polski uzyskane na podstawie danych udostępnionych przez Instytut Meteorologii i Gospodarki Wodnej – Państwowy Instytut Badawczy.

 

Wybierz Datę:    

       

TemperaturaWilgotnośćWiatrCiśnienieOpadyŚniegCzas trwania zjawisk
 Stacja t tx tn tng RH VA  wxwx mslp ppp RRR   cm mm wxwxwxwxwxwxwx
1999-08-14 12.3 18.3 6.7- 77.5- 3.3 1.3---- 0.0------------
1999-08-13 13.1 15.5 11.1- 90.3- 8.0 0.0---- 1.3------------
1999-08-12 15.7 18.3 13.4- 88.0- 7.7 0.3---- 0.2------------
1999-08-11 19.1 25.2 16.2- 80.3- 7.7 0.7---- 19.7------------
1999-08-10 22.3 29.1 15.0- 77.5- 7.0 1.3---- 2.9------------
1999-08-09 20.2 29.3 11.2- 76.5- 4.3 0.7---- 0.0------------
1999-08-08 18.1 22.0 12.1- 81.5- 4.7 1.3---- 0.0------------
1999-08-07 17.4 26.1 9.9- 82.0- 4.3 0.7---- 0.3------------
1999-08-06 16.9 22.7 9.8- 79.0- 6.0 1.3---- 9.1------------
1999-08-05 15.5 22.6 8.8- 75.3- 6.0 0.3---- 0.0------------
1999-08-04 15.0 19.5 11.0- 85.5- 5.7 0.7---- 0.0------------
1999-08-03 14.1 17.3 11.2- 86.0- 8.0 0.0---- 0.5------------
1999-08-02 14.2 16.7 12.6- 87.5- 8.0 0.7---- 1.5------------
1999-08-01 15.7 20.3 11.7- 86.3- 6.3 1.3---- 0.3------------
1999-07-31 15.7 20.3 11.6- 74.8- 6.3 0.7---- 1.3------------
1999-07-30 13.1 20.6 5.6- 72.3- 5.0 0.3---- 0.0------------
1999-07-29 16.5 20.9 13.2- 66.8- 3.7 2.3---- 0.0------------
1999-07-28 16.8 19.7 13.9- 85.5- 7.7 0.7---- 1.8------------
1999-07-27 18.2 23.7 13.0- 84.5- 7.0 0.7---- 0.0------------
1999-07-26 19.2 27.6 12.6- 81.8- 6.0 0.7---- 0.0------------
1999-07-25 16.6 23.2 10.0- 87.0- 7.0 0.7---- 0.0------------
1999-07-24 14.8 17.7 11.6- 88.0- 7.7 0.3---- 0.1------------
1999-07-23 15.4 20.1 13.1- 92.3- 8.0 1.7---- 9.6------------
1999-07-22 19.5 26.3 12.6- 80.0- 4.3 0.7---- 12.1------------
1999-07-21 18.8 26.7 9.4- 76.8- 3.0 1.3---- 0.2------------
1999-07-20 18.3 26.2 8.8- 70.0- 1.3 1.0---- 0.0------------
1999-07-19 14.5 23.6 4.9- 76.5- 4.0 0.7---- 0.0------------
1999-07-18 13.8 22.4 6.6- 76.3- 1.3 0.7---- 0.0------------
1999-07-17 13.8 20.3 5.9- 77.3- 3.0 0.7---- 0.0------------
1999-07-16 14.0 18.4 7.9- 80.5- 5.3 0.7---- 0.3------------
1999-07-15 15.0 18.1 13.4- 96.8- 7.3 0.7---- 8.5------------
1999-07-14 19.5 23.8 16.6- 75.3- 7.7 1.7---- 15.0------------
1999-07-13 17.2 22.0 12.5- 85.8- 7.3 1.0---- 0.1------------
1999-07-12 18.9 25.6 12.6- 80.3- 6.0 0.3---- 4.2------------
1999-07-11 19.8 22.6 16.0- 73.0- 6.3 0.7---- 0.0------------
1999-07-10 18.5 22.2 16.5- 91.8- 8.0 1.0---- 1.4------------
1999-07-09 20.5 24.6 16.6- 82.3- 7.0 0.7---- 0.1------------
1999-07-08 20.6 26.7 15.8- 81.5- 5.3 0.7---- 3.0------------
1999-07-07 21.9 30.0 14.6- 71.8- 4.3 0.7---- 17.0------------
1999-07-06 20.5 28.4 10.4- 67.8- 1.3 1.0---- 0.0------------
1999-07-05 20.1 29.1 9.0- 67.5- 2.3 0.7---- 0.0------------
1999-07-04 18.3 27.4 7.7- 72.0- 0.7 0.0---- 0.0------------
1999-07-03 17.5 23.2 10.4- 77.5- 3.0 0.7---- 0.0------------
1999-07-02 17.4 24.7 8.2- 80.5- 5.7 1.3---- 0.0------------
1999-07-01 15.8 22.7 9.2- 77.8- 5.7 0.3---- 0.0------------
1999-06-30 16.5 23.3 9.6- 78.3- 4.0 0.3---- 0.0------------
1999-06-29 16.2 20.6 10.0- 86.0- 6.3 1.0---- 0.0------------
1999-06-28 17.2 26.2 7.7- 73.0- 3.0 0.7---- 0.0------------
1999-06-27 15.3 25.8 3.3- 67.3- 0.0 0.3---- 0.0------------
1999-06-26 13.4 21.5 4.7- 74.5- 0.7 0.7---- 0.0------------
1999-06-25 12.1 16.2 8.8- 90.0- 6.0 0.0---- 0.0------------
1999-06-24 9.6 10.4 8.6- 96.8- 8.0 0.3---- 11.0------------
1999-06-23 8.6 10.0 6.9- 95.3- 8.0 2.0---- 10.3------------
1999-06-22 13.1 18.5 9.2- 96.5- 8.0 1.7---- 34.3------------
1999-06-21 17.2 23.6 11.4- 80.0- 5.3 1.0---- 20.5------------
1999-06-20 17.2 23.4 13.1- 83.0- 7.3 0.0---- 18.6------------
1999-06-19 16.8 23.4 11.2- 89.0- 6.0 0.3---- 10.6------------
1999-06-18 17.0 25.2 11.6- 86.8- 4.7 0.3---- 8.5------------
1999-06-17 16.8 22.2 12.8- 93.0- 7.7 0.0---- 9.8------------
1999-06-16 17.7 21.5 14.0- 85.0- 7.0 0.7---- 0.2------------
320.0 ms

 

Źródłem pochodzenia danych jest Instytut Meteorologii i Gospodarki Wodnej – Państwowy Instytut Badawczy. Dane Instytutu Meteorologii i Gospodarki Wodnej – Państwowego Instytutu Badawczego zostały przetworzone.

Dane źródłowe można odnaleźć na stronie https://dane.imgw.pl